createdAt,value
2023-01-20T00:00:35.602Z,11.50
2023-01-20T00:01:35.727Z,13.10
2023-01-20T00:02:35.963Z,11.20
2023-01-20T00:03:36.088Z,11.80
2023-01-20T00:04:36.229Z,11.60
2023-01-20T00:05:36.422Z,12.20
2023-01-20T00:06:36.566Z,11.30
2023-01-20T00:07:36.795Z,11.50
2023-01-20T00:08:36.927Z,12.00
2023-01-20T00:09:37.100Z,12.10
2023-01-20T00:10:37.252Z,11.70
2023-01-20T00:11:37.431Z,12.00
2023-01-20T00:12:37.584Z,11.60
2023-01-20T00:13:37.769Z,12.20
2023-01-20T00:14:37.899Z,11.90
2023-01-20T00:15:38.084Z,12.30
2023-01-20T00:16:38.231Z,12.30
2023-01-20T00:17:38.393Z,11.40
2023-01-20T00:18:38.555Z,13.40
2023-01-20T00:19:38.721Z,12.80
2023-01-20T00:20:38.873Z,12.60
2023-01-20T00:21:39.053Z,12.30
2023-01-20T00:22:39.205Z,14.50
2023-01-20T00:23:39.365Z,12.50
2023-01-20T00:24:39.523Z,13.40
2023-01-20T00:25:39.700Z,13.60
2023-01-20T00:26:39.893Z,13.00
2023-01-20T00:27:40.084Z,13.80
2023-01-20T00:28:40.203Z,13.10
2023-01-20T00:29:40.373Z,12.80
2023-01-20T00:30:40.600Z,13.10
2023-01-20T00:31:40.767Z,13.90
2023-01-20T00:32:40.846Z,12.80
2023-01-20T00:33:41.006Z,12.20
2023-01-20T00:34:41.188Z,13.30
2023-01-20T00:35:41.347Z,13.50
2023-01-20T00:36:41.549Z,14.80
2023-01-20T00:37:41.687Z,14.70
2023-01-20T00:38:41.845Z,14.20
2023-01-20T00:39:42.006Z,13.40
2023-01-20T00:40:42.190Z,12.60
2023-01-20T00:41:42.400Z,14.50
2023-01-20T00:42:42.544Z,12.80
2023-01-20T00:43:42.770Z,13.10
2023-01-20T00:44:42.907Z,14.50
2023-01-20T00:45:43.088Z,13.20
2023-01-20T00:46:43.302Z,15.20
2023-01-20T00:47:43.418Z,13.60
2023-01-20T00:48:43.643Z,12.70
2023-01-20T00:49:43.772Z,13.80
2023-01-20T00:50:43.960Z,15.00
2023-01-20T00:51:44.130Z,15.10
2023-01-20T00:52:44.287Z,14.30
2023-01-20T00:53:44.472Z,12.80
2023-01-20T00:54:44.650Z,13.80
2023-01-20T00:55:44.842Z,13.00
2023-01-20T00:56:45.038Z,14.00
2023-01-20T00:57:45.197Z,15.20
2023-01-20T00:58:45.340Z,14.10
2023-01-20T00:59:45.536Z,12.80
2023-01-20T01:00:45.746Z,14.60
2023-01-20T01:01:45.986Z,14.90
2023-01-20T01:02:46.050Z,13.50
2023-01-20T01:03:46.247Z,13.50
2023-01-20T01:04:46.405Z,15.80
2023-01-20T01:05:46.582Z,15.00
2023-01-20T01:06:46.763Z,13.40
2023-01-20T01:07:46.904Z,14.90
2023-01-20T01:08:47.086Z,13.20
2023-01-20T01:09:47.230Z,14.50
2023-01-20T01:10:47.437Z,15.50
2023-01-20T01:11:47.611Z,14.30
2023-01-20T01:12:47.755Z,15.00
2023-01-20T01:13:47.946Z,15.90
2023-01-20T01:14:48.130Z,14.80
2023-01-20T01:15:48.324Z,13.90
2023-01-20T01:16:48.548Z,15.10
2023-01-20T01:17:48.663Z,14.20
2023-01-20T01:18:48.838Z,17.60
2023-01-20T01:19:49.037Z,14.80
2023-01-20T01:20:49.219Z,14.60
2023-01-20T01:21:49.427Z,15.20
2023-01-20T01:22:49.569Z,16.60
2023-01-20T01:23:49.756Z,14.90
2023-01-20T01:24:49.908Z,16.40
2023-01-20T01:25:50.128Z,16.30
2023-01-20T01:26:50.266Z,16.40
2023-01-20T01:27:50.486Z,16.00
2023-01-20T01:28:50.652Z,15.80
2023-01-20T01:29:50.844Z,18.60
2023-01-20T01:30:51.070Z,15.20
2023-01-20T01:31:51.201Z,16.40
2023-01-20T01:32:51.348Z,14.90
2023-01-20T01:33:51.509Z,15.60
2023-01-20T01:34:51.691Z,16.40
2023-01-20T01:35:51.864Z,19.10
2023-01-20T01:36:52.006Z,15.60
2023-01-20T01:37:52.195Z,17.40
2023-01-20T01:38:57.692Z,16.10
2023-01-20T01:39:53.549Z,16.70
2023-01-20T01:40:52.757Z,17.60
2023-01-20T01:41:52.901Z,16.10
2023-01-20T01:42:53.111Z,14.80
2023-01-20T01:43:53.260Z,15.90
2023-01-20T01:44:53.439Z,15.40
2023-01-20T01:45:53.735Z,15.30
2023-01-20T01:46:53.799Z,14.70
2023-01-20T01:47:53.983Z,15.40
2023-01-20T01:48:54.129Z,16.80
2023-01-20T01:49:54.298Z,15.20
2023-01-20T01:50:54.450Z,16.20
2023-01-20T01:51:54.634Z,16.10
2023-01-20T01:52:54.835Z,16.50
2023-01-20T01:53:54.991Z,18.30
2023-01-20T01:54:55.162Z,15.00
2023-01-20T01:55:55.346Z,16.50
2023-01-20T01:56:55.544Z,15.60
2023-01-20T01:57:55.702Z,15.90
2023-01-20T01:58:55.862Z,18.00
2023-01-20T01:59:56.003Z,17.30
2023-01-20T02:00:56.272Z,17.80
2023-01-20T02:01:56.467Z,16.70
2023-01-20T02:02:56.552Z,14.70
2023-01-20T02:03:56.699Z,15.90
2023-01-20T02:04:56.894Z,15.20
2023-01-20T02:05:57.074Z,19.40
2023-01-20T02:06:57.245Z,18.00
2023-01-20T02:07:57.473Z,19.40
2023-01-20T02:08:57.586Z,16.90
2023-01-20T02:09:57.747Z,15.80
2023-01-20T02:10:57.919Z,16.90
2023-01-20T02:11:58.076Z,17.50
2023-01-20T02:12:58.273Z,18.60
2023-01-20T02:13:58.432Z,17.90
2023-01-20T02:14:58.595Z,15.10
2023-01-20T02:15:58.786Z,16.50
2023-01-20T02:16:58.947Z,18.20
2023-01-20T02:17:59.134Z,16.60
2023-01-20T02:18:59.287Z,17.30
2023-01-20T02:19:59.470Z,16.80
2023-01-20T02:20:59.630Z,15.90
2023-01-20T02:21:59.812Z,16.90
2023-01-20T02:22:59.989Z,18.40
2023-01-20T02:24:00.147Z,17.00
2023-01-20T02:25:00.319Z,18.00
2023-01-20T02:26:00.473Z,17.50
2023-01-20T02:27:00.650Z,19.00
2023-01-20T02:28:00.815Z,17.10
2023-01-20T02:29:00.994Z,18.70
2023-01-20T02:30:01.177Z,18.50
2023-01-20T02:31:01.319Z,16.80
2023-01-20T02:32:01.489Z,16.30
2023-01-20T02:33:01.654Z,17.10
2023-01-20T02:34:01.818Z,16.20
2023-01-20T02:35:02.006Z,18.00
2023-01-20T02:36:02.177Z,17.40
2023-01-20T02:37:02.331Z,17.90
2023-01-20T02:38:02.500Z,19.10
2023-01-20T02:39:02.676Z,19.50
2023-01-20T02:40:02.841Z,18.60
2023-01-20T02:41:03.031Z,18.10
2023-01-20T02:42:03.192Z,16.90
2023-01-20T02:43:03.361Z,18.40
2023-01-20T02:44:03.517Z,17.40
2023-01-20T02:45:03.691Z,18.60
2023-01-20T02:46:03.911Z,19.30
2023-01-20T02:47:04.060Z,17.20
2023-01-20T02:48:04.183Z,16.30
2023-01-20T02:49:04.357Z,18.10
2023-01-20T02:50:04.515Z,18.70
2023-01-20T02:51:04.697Z,18.80
2023-01-20T02:52:04.871Z,19.60
2023-01-20T02:53:05.051Z,17.80
2023-01-20T02:54:05.218Z,19.60
2023-01-20T02:55:05.379Z,18.20
2023-01-20T02:56:05.524Z,17.10
2023-01-20T02:57:05.745Z,17.00
2023-01-20T02:58:05.876Z,16.90
2023-01-20T02:59:06.043Z,18.40
2023-01-20T03:00:06.195Z,19.50
2023-01-20T03:01:06.427Z,17.50
2023-01-20T03:02:06.656Z,21.40
2023-01-20T03:03:06.713Z,18.50
2023-01-20T03:04:06.894Z,20.20
2023-01-20T03:05:07.026Z,19.40
2023-01-20T03:06:07.199Z,18.50
2023-01-20T03:07:07.377Z,20.60
2023-01-20T03:08:07.535Z,19.60
2023-01-20T03:09:07.707Z,19.30
2023-01-20T03:10:07.889Z,19.50
2023-01-20T03:11:08.053Z,19.30
2023-01-20T03:12:08.212Z,19.80
2023-01-20T03:13:08.388Z,19.80
2023-01-20T03:14:08.558Z,19.90
2023-01-20T03:15:08.718Z,20.60
2023-01-20T03:16:08.881Z,17.70
2023-01-20T03:17:09.069Z,19.80
2023-01-20T03:18:09.234Z,22.10
2023-01-20T03:19:09.407Z,22.10
2023-01-20T03:20:09.608Z,18.80
2023-01-20T03:21:09.745Z,20.70
2023-01-20T03:22:09.954Z,21.50
2023-01-20T03:23:10.075Z,21.30
2023-01-20T03:24:10.219Z,19.20
2023-01-20T03:25:10.404Z,22.10
2023-01-20T03:26:10.562Z,20.40
2023-01-20T03:27:10.979Z,19.70
2023-01-20T03:28:10.905Z,19.50
2023-01-20T03:29:11.079Z,20.40
2023-01-20T03:30:11.232Z,23.10
2023-01-20T03:31:11.495Z,19.90
2023-01-20T03:32:11.569Z,18.90
2023-01-20T03:33:11.750Z,20.80
2023-01-20T03:34:11.903Z,20.80
2023-01-20T03:35:12.095Z,20.30
2023-01-20T03:36:12.242Z,20.60
2023-01-20T03:37:12.434Z,20.30
2023-01-20T03:38:12.596Z,20.80
2023-01-20T03:39:12.783Z,23.70
2023-01-20T03:40:12.937Z,18.70
2023-01-20T03:41:13.105Z,20.50
2023-01-20T03:42:13.253Z,20.60
2023-01-20T03:43:13.442Z,22.80
2023-01-20T03:44:13.616Z,22.00
2023-01-20T03:45:13.997Z,20.60
2023-01-20T03:46:13.986Z,21.00
2023-01-20T03:47:14.114Z,19.80
2023-01-20T03:48:14.276Z,20.30
2023-01-20T03:49:14.445Z,22.50
2023-01-20T03:50:14.617Z,19.50
2023-01-20T03:51:14.774Z,19.80
2023-01-20T03:52:14.944Z,19.60
2023-01-20T03:53:15.126Z,19.80
2023-01-20T03:54:15.285Z,21.00
2023-01-20T03:55:15.788Z,21.30
2023-01-20T03:56:15.649Z,19.80
2023-01-20T03:57:15.815Z,20.20
2023-01-20T03:58:15.993Z,18.90
2023-01-20T03:59:16.147Z,21.80
2023-01-20T04:00:16.310Z,22.00
2023-01-20T04:01:18.468Z,20.20
2023-01-20T04:02:16.764Z,20.10
2023-01-20T04:03:16.936Z,21.70
2023-01-20T04:04:16.991Z,22.30
2023-01-20T04:05:17.313Z,20.80
2023-01-20T04:06:17.333Z,21.50
2023-01-20T04:07:17.505Z,22.10
2023-01-20T04:08:17.677Z,21.60
2023-01-20T04:09:17.859Z,20.30
2023-01-20T04:10:18.020Z,23.20
2023-01-20T04:11:18.178Z,22.60
2023-01-20T04:12:18.338Z,22.60
2023-01-20T04:13:18.509Z,19.20
2023-01-20T04:14:18.684Z,21.30
2023-01-20T04:15:18.848Z,19.40
2023-01-20T04:16:19.013Z,20.00
2023-01-20T04:17:19.181Z,20.80
2023-01-20T04:18:19.355Z,19.40
2023-01-20T04:19:19.521Z,19.80
2023-01-20T04:20:19.680Z,20.80
2023-01-20T04:21:19.855Z,20.70
2023-01-20T04:22:20.036Z,21.40
2023-01-20T04:23:20.182Z,19.40
2023-01-20T04:24:20.361Z,20.30
2023-01-20T04:25:20.523Z,19.20
2023-01-20T04:26:20.696Z,20.80
2023-01-20T04:27:20.867Z,20.20
2023-01-20T04:28:21.042Z,20.20
2023-01-20T04:29:21.212Z,20.50
2023-01-20T04:30:21.398Z,23.20
2023-01-20T04:31:30.425Z,20.60
2023-01-20T04:32:22.735Z,23.00
2023-01-20T04:33:21.933Z,20.00
2023-01-20T04:34:22.094Z,22.00
2023-01-20T04:35:22.270Z,23.40
2023-01-20T04:36:22.427Z,21.30
2023-01-20T04:37:22.597Z,20.30
2023-01-20T04:38:22.775Z,22.50
2023-01-20T04:39:22.962Z,22.00
2023-01-20T04:40:23.100Z,22.10
2023-01-20T04:41:23.399Z,23.80
2023-01-20T04:42:23.437Z,21.90
2023-01-20T04:43:23.613Z,22.80
2023-01-20T04:44:23.784Z,20.50
2023-01-20T04:45:23.956Z,21.40
2023-01-20T04:46:24.151Z,21.60
2023-01-20T04:47:24.307Z,21.20
2023-01-20T04:48:24.474Z,21.40
2023-01-20T04:49:24.636Z,23.10
2023-01-20T04:50:24.793Z,21.90
2023-01-20T04:51:24.967Z,19.80
2023-01-20T04:52:25.126Z,22.20
2023-01-20T04:53:25.323Z,22.10
2023-01-20T04:54:25.491Z,24.60
2023-01-20T04:55:25.660Z,21.80
2023-01-20T04:56:25.811Z,22.70
2023-01-20T04:57:25.999Z,22.20
2023-01-20T04:58:26.152Z,22.00
2023-01-20T04:59:26.339Z,21.60
2023-01-20T05:00:26.501Z,22.10
2023-01-20T05:01:26.738Z,21.90
2023-01-20T05:02:26.998Z,22.00
2023-01-20T05:03:27.032Z,24.20
2023-01-20T05:04:27.201Z,21.70
2023-01-20T05:05:27.369Z,25.70
2023-01-20T05:06:27.523Z,25.00
2023-01-20T05:07:27.703Z,21.70
2023-01-20T05:08:27.865Z,23.00
2023-01-20T05:09:28.030Z,21.40
2023-01-20T05:10:28.203Z,22.40
2023-01-20T05:11:28.371Z,21.50
2023-01-20T05:12:28.529Z,22.20
2023-01-20T05:13:28.742Z,22.30
2023-01-20T05:14:28.861Z,22.90
2023-01-20T05:15:29.023Z,21.40
2023-01-20T05:16:29.190Z,22.40
2023-01-20T05:17:29.363Z,21.50
2023-01-20T05:18:29.550Z,22.90
2023-01-20T05:19:29.718Z,22.10
2023-01-20T05:20:29.877Z,22.30
2023-01-20T05:21:30.051Z,21.60
2023-01-20T05:22:30.231Z,22.50
2023-01-20T05:23:30.413Z,24.40
2023-01-20T05:24:30.562Z,24.60
2023-01-20T05:25:30.744Z,23.60
2023-01-20T05:26:30.898Z,22.30
2023-01-20T05:27:31.096Z,26.00
2023-01-20T05:28:31.254Z,23.60
2023-01-20T05:29:31.616Z,25.70
2023-01-20T05:30:31.606Z,24.40
2023-01-20T05:31:31.779Z,25.00
2023-01-20T05:32:31.954Z,23.20
2023-01-20T05:33:32.113Z,26.50
2023-01-20T05:34:32.272Z,25.20
2023-01-20T05:35:32.429Z,24.60
2023-01-20T05:36:32.603Z,24.20
2023-01-20T05:37:32.774Z,23.90
2023-01-20T05:38:32.947Z,25.20
2023-01-20T05:39:33.106Z,24.40
2023-01-20T05:40:33.279Z,24.00
2023-01-20T05:41:33.451Z,23.60
2023-01-20T05:42:33.625Z,23.10
2023-01-20T05:43:33.785Z,27.40
2023-01-20T05:44:33.950Z,28.30
2023-01-20T05:45:34.126Z,25.20
2023-01-20T05:46:34.313Z,26.50
2023-01-20T05:47:34.464Z,26.10
2023-01-20T05:48:34.642Z,27.80
2023-01-20T05:49:34.818Z,27.20
2023-01-20T05:50:34.968Z,28.10
2023-01-20T05:51:35.147Z,26.00
2023-01-20T05:52:35.317Z,24.80
2023-01-20T05:53:35.500Z,25.70
2023-01-20T05:54:35.669Z,28.40
2023-01-20T05:55:35.836Z,27.30
2023-01-20T05:56:35.988Z,24.40
2023-01-20T05:57:36.169Z,25.10
2023-01-20T05:58:36.329Z,26.20
2023-01-20T05:59:36.503Z,26.30
2023-01-20T06:00:36.670Z,26.60
2023-01-20T06:01:36.937Z,27.00
2023-01-20T06:02:37.057Z,27.20
2023-01-20T06:03:37.222Z,28.00
2023-01-20T06:04:37.354Z,28.10
2023-01-20T06:05:37.511Z,28.50
2023-01-20T06:06:37.682Z,26.60
2023-01-20T06:07:37.838Z,27.70
2023-01-20T06:08:38.021Z,27.40
2023-01-20T06:09:38.179Z,27.80
2023-01-20T06:10:38.351Z,28.00
2023-01-20T06:11:38.525Z,27.00
2023-01-20T06:12:38.747Z,28.40
2023-01-20T06:13:38.843Z,26.10
2023-01-20T06:14:39.012Z,26.10
2023-01-20T06:15:39.164Z,28.70
2023-01-20T06:16:39.342Z,28.20
2023-01-20T06:17:39.542Z,28.80
2023-01-20T06:18:39.669Z,27.70
2023-01-20T06:19:39.839Z,27.70
2023-01-20T06:20:39.997Z,30.30
2023-01-20T06:21:40.158Z,28.90
2023-01-20T06:22:40.361Z,28.80
2023-01-20T06:23:40.483Z,27.50
2023-01-20T06:24:40.652Z,29.80
2023-01-20T06:25:40.814Z,28.10
2023-01-20T06:26:40.992Z,29.40
2023-01-20T06:27:41.158Z,29.50
2023-01-20T06:28:41.325Z,28.70
2023-01-20T06:29:41.486Z,29.80
2023-01-20T06:30:41.668Z,27.30
2023-01-20T06:31:41.948Z,29.20
2023-01-20T06:32:42.006Z,30.40
2023-01-20T06:33:42.179Z,28.20
2023-01-20T06:34:42.338Z,30.30
2023-01-20T06:35:42.495Z,29.10
2023-01-20T06:36:42.669Z,29.60
2023-01-20T06:37:42.849Z,27.10
2023-01-20T06:38:43.026Z,27.30
2023-01-20T06:39:43.176Z,29.30
2023-01-20T06:40:43.361Z,27.90
2023-01-20T06:41:43.515Z,28.80
2023-01-20T06:42:43.687Z,27.10
2023-01-20T06:43:43.873Z,30.30
2023-01-20T06:44:44.028Z,27.10
2023-01-20T06:45:44.219Z,29.30
2023-01-20T06:46:46.274Z,28.70
2023-01-20T06:47:44.553Z,29.40
2023-01-20T06:48:44.752Z,29.00
2023-01-20T06:49:44.904Z,30.50
2023-01-20T06:50:45.070Z,30.10
2023-01-20T06:51:45.222Z,27.00
2023-01-20T06:52:45.412Z,33.00
2023-01-20T06:53:45.585Z,30.90
2023-01-20T06:54:45.772Z,29.00
2023-01-20T06:55:45.932Z,28.40
2023-01-20T06:56:46.117Z,30.30
2023-01-20T06:57:46.270Z,27.50
2023-01-20T06:58:46.451Z,28.80
2023-01-20T06:59:46.605Z,30.40
2023-01-20T07:00:46.801Z,30.00
2023-01-20T07:01:47.098Z,30.40
2023-01-20T07:02:47.175Z,28.20
2023-01-20T07:03:47.287Z,29.80
2023-01-20T07:04:47.453Z,30.40
2023-01-20T07:05:47.628Z,28.00
2023-01-20T07:06:47.807Z,27.90
2023-01-20T07:07:47.963Z,28.50
2023-01-20T07:08:48.150Z,30.20
2023-01-20T07:09:48.306Z,27.70
2023-01-20T07:10:48.475Z,31.30
2023-01-20T07:11:48.652Z,28.20
2023-01-20T07:12:48.823Z,30.00
2023-01-20T07:13:49.003Z,27.40
2023-01-20T07:14:49.181Z,27.40
2023-01-20T07:15:49.354Z,29.50
2023-01-20T07:16:49.609Z,29.50
2023-01-20T07:17:49.705Z,29.30
2023-01-20T07:18:49.911Z,28.60
2023-01-20T07:19:50.065Z,32.80
2023-01-20T07:20:50.268Z,28.30
2023-01-20T07:21:50.426Z,32.80
2023-01-20T07:22:50.575Z,30.30
2023-01-20T07:23:50.757Z,31.00
2023-01-20T07:24:50.938Z,29.30
2023-01-20T07:25:51.075Z,29.30
2023-01-20T07:26:51.295Z,29.60
2023-01-20T07:27:51.435Z,27.30
2023-01-20T07:28:51.618Z,29.30
2023-01-20T07:29:51.791Z,30.60
2023-01-20T07:30:52.003Z,29.70
2023-01-20T07:31:52.214Z,29.60
2023-01-20T07:32:52.355Z,29.10
2023-01-20T07:33:52.496Z,31.00
2023-01-20T07:34:52.676Z,28.90
2023-01-20T07:35:52.859Z,30.20
2023-01-20T07:36:53.052Z,30.70
2023-01-20T07:37:53.186Z,30.80
2023-01-20T07:38:53.385Z,29.50
2023-01-20T07:39:53.547Z,32.40
2023-01-20T07:40:53.732Z,31.30
2023-01-20T07:41:53.918Z,29.60
2023-01-20T07:42:54.108Z,30.40
2023-01-20T07:43:54.311Z,29.90
2023-01-20T07:44:54.467Z,29.30
2023-01-20T07:45:54.709Z,30.20
2023-01-20T07:46:54.828Z,30.30
2023-01-20T07:47:54.999Z,32.10
2023-01-20T07:48:55.177Z,30.10
2023-01-20T07:49:55.380Z,30.00
2023-01-20T07:50:55.552Z,30.30
2023-01-20T07:51:55.709Z,31.40
2023-01-20T07:52:55.890Z,28.20
2023-01-20T07:53:56.079Z,31.00
2023-01-20T07:54:56.290Z,31.40
2023-01-20T07:55:56.440Z,32.80
2023-01-20T07:56:56.622Z,29.00
2023-01-20T07:57:56.798Z,29.30
2023-01-20T07:58:57.000Z,31.60
2023-01-20T07:59:57.144Z,32.50
2023-01-20T08:00:57.377Z,30.60
2023-01-20T08:01:57.571Z,29.90
2023-01-20T08:02:57.676Z,29.80
2023-01-20T08:03:57.815Z,30.30
2023-01-20T08:04:58.020Z,31.30
2023-01-20T08:05:58.174Z,29.40
2023-01-20T08:06:58.381Z,30.80
2023-01-20T08:07:58.513Z,30.30
2023-01-20T08:08:58.937Z,31.20
2023-01-20T08:09:58.861Z,31.00
2023-01-20T08:10:59.089Z,29.50
2023-01-20T08:11:59.216Z,33.50
2023-01-20T08:12:59.362Z,32.10
2023-01-20T08:13:59.537Z,29.10
2023-01-20T08:14:59.737Z,31.40
2023-01-20T08:15:59.902Z,32.30
2023-01-20T08:17:00.183Z,28.70
2023-01-20T08:18:00.263Z,33.30
2023-01-20T08:19:00.446Z,30.80
2023-01-20T08:20:00.634Z,31.70
2023-01-20T08:21:00.834Z,33.00
2023-01-20T08:22:01.009Z,30.30
2023-01-20T08:23:01.145Z,33.40
2023-01-20T08:24:01.343Z,31.60
2023-01-20T08:25:01.514Z,32.30
2023-01-20T08:26:01.680Z,31.60
2023-01-20T08:27:01.885Z,33.00
2023-01-20T08:28:03.817Z,33.00
2023-01-20T08:29:02.229Z,32.50
2023-01-20T08:30:02.367Z,31.40
2023-01-20T08:31:02.635Z,34.30
2023-01-20T08:32:02.723Z,33.10
2023-01-20T08:33:02.876Z,31.10
2023-01-20T08:34:03.041Z,32.20
2023-01-20T08:35:03.207Z,30.00
2023-01-20T08:36:03.388Z,30.00
2023-01-20T08:37:03.560Z,31.60
2023-01-20T08:38:03.709Z,32.60
2023-01-20T08:39:03.876Z,34.10
2023-01-20T08:40:04.068Z,32.80
2023-01-20T08:41:04.200Z,32.70
2023-01-20T08:42:04.369Z,33.80
2023-01-20T08:43:04.544Z,33.50
2023-01-20T08:44:04.704Z,34.00
2023-01-20T08:45:04.910Z,34.30
2023-01-20T08:46:05.183Z,34.00
2023-01-20T08:47:05.216Z,32.40
2023-01-20T08:48:05.380Z,33.90
2023-01-20T08:49:05.559Z,39.40
2023-01-20T08:50:05.754Z,47.00
2023-01-20T08:51:05.952Z,43.50
2023-01-20T08:52:06.076Z,36.80
2023-01-20T08:53:06.255Z,36.40
2023-01-20T08:54:06.430Z,35.50
2023-01-20T08:55:06.629Z,37.00
2023-01-20T08:56:06.805Z,32.30
2023-01-20T08:57:06.961Z,35.60
2023-01-20T08:58:07.111Z,36.40
2023-01-20T08:59:07.308Z,34.30
2023-01-20T09:00:07.462Z,34.10
2023-01-20T09:01:07.635Z,33.70
2023-01-20T09:02:07.794Z,32.90
2023-01-20T09:03:07.941Z,31.70
2023-01-20T09:04:08.115Z,30.20
2023-01-20T09:05:08.305Z,31.10
2023-01-20T09:06:08.451Z,29.70
2023-01-20T09:07:08.629Z,28.90
2023-01-20T09:08:08.841Z,28.40
2023-01-20T09:09:08.992Z,30.80
2023-01-20T09:10:09.175Z,28.60
2023-01-20T09:11:09.448Z,29.60
2023-01-20T09:12:09.475Z,29.20
2023-01-20T09:13:09.659Z,27.50
2023-01-20T09:14:09.814Z,29.20
2023-01-20T09:15:10.005Z,27.60
2023-01-20T09:16:10.213Z,29.80
2023-01-20T09:17:10.324Z,29.30
2023-01-20T09:18:10.479Z,28.50
2023-01-20T09:19:10.680Z,28.80
2023-01-20T09:20:10.826Z,27.10
2023-01-20T09:21:11.036Z,29.50
2023-01-20T09:22:11.188Z,31.60
2023-01-20T09:23:11.372Z,25.70
2023-01-20T09:24:11.517Z,27.70
2023-01-20T09:25:11.712Z,26.60
2023-01-20T09:26:13.289Z,27.90
2023-01-20T09:27:12.051Z,24.60
2023-01-20T09:28:12.186Z,28.90
2023-01-20T09:29:12.382Z,25.80
2023-01-20T09:30:12.521Z,26.50
2023-01-20T09:31:12.801Z,25.90
2023-01-20T09:32:12.857Z,29.30
2023-01-20T09:33:13.054Z,29.20
2023-01-20T09:34:15.143Z,32.20
2023-01-20T09:35:13.902Z,33.40
2023-01-20T09:36:13.572Z,27.80
2023-01-20T09:37:13.728Z,28.80
2023-01-20T09:38:13.929Z,23.00
2023-01-20T09:39:14.080Z,22.20
2023-01-20T09:40:14.581Z,22.50
2023-01-20T09:41:14.430Z,22.40
2023-01-20T09:42:14.569Z,22.70
2023-01-20T09:43:14.783Z,22.80
2023-01-20T09:44:14.901Z,23.90
2023-01-20T09:45:15.396Z,22.10
2023-01-20T09:46:15.316Z,21.30
2023-01-20T09:47:15.421Z,23.60
2023-01-20T09:48:15.595Z,23.70
2023-01-20T09:49:15.743Z,25.00
2023-01-20T09:50:16.170Z,23.50
2023-01-20T09:51:16.064Z,23.10
2023-01-20T09:52:16.235Z,22.00
2023-01-20T09:53:16.438Z,21.30
2023-01-20T09:54:16.577Z,20.60
2023-01-20T09:55:16.771Z,18.90
2023-01-20T09:56:17.084Z,20.70
2023-01-20T09:57:17.087Z,22.30
2023-01-20T09:58:17.258Z,19.80
2023-01-20T09:59:17.424Z,21.10
2023-01-20T10:00:17.720Z,19.00
2023-01-20T10:01:17.809Z,18.40
2023-01-20T10:02:17.949Z,19.20
2023-01-20T10:03:18.096Z,21.70
2023-01-20T10:04:18.249Z,20.60
2023-01-20T10:05:18.458Z,21.50
2023-01-20T10:06:18.620Z,22.30
2023-01-20T10:07:18.781Z,20.20
2023-01-20T10:08:18.932Z,22.30
2023-01-20T10:09:19.126Z,22.60
2023-01-20T10:10:19.277Z,23.60
2023-01-20T10:11:19.482Z,24.10
2023-01-20T10:12:19.660Z,23.00
2023-01-20T10:13:19.784Z,22.40
2023-01-20T10:14:19.944Z,22.90
2023-01-20T10:15:20.126Z,25.20
2023-01-20T10:16:20.316Z,25.70
2023-01-20T10:17:20.447Z,23.40
2023-01-20T10:18:20.598Z,26.30
2023-01-20T10:19:20.781Z,25.50
2023-01-20T10:20:20.946Z,24.70
2023-01-20T10:21:21.140Z,23.80
2023-01-20T10:22:21.287Z,23.90
2023-01-20T10:23:21.438Z,23.80
2023-01-20T10:24:21.631Z,22.00
2023-01-20T10:25:21.789Z,23.10
2023-01-20T10:26:21.988Z,22.50
2023-01-20T10:27:22.135Z,22.90
2023-01-20T10:28:22.312Z,23.50
2023-01-20T10:29:22.480Z,21.40
2023-01-20T10:30:22.746Z,21.50
2023-01-20T10:31:22.898Z,22.80
2023-01-20T10:32:22.963Z,22.10
2023-01-20T10:33:23.162Z,24.80
2023-01-20T10:34:23.297Z,20.40
2023-01-20T10:35:23.449Z,15.90
2023-01-20T10:36:23.634Z,14.90
2023-01-20T10:37:23.829Z,14.40
2023-01-20T10:38:24.016Z,17.00
2023-01-20T10:39:24.217Z,13.40
2023-01-20T10:40:24.407Z,13.40
2023-01-20T10:41:24.546Z,12.70
2023-01-20T10:42:24.720Z,14.50
2023-01-20T10:43:24.891Z,15.70
2023-01-20T10:44:25.092Z,11.60
2023-01-20T10:45:25.261Z,14.20
2023-01-20T10:46:25.517Z,10.30
2023-01-20T10:47:25.628Z,13.00
2023-01-20T10:48:25.811Z,11.10
2023-01-20T10:49:26.000Z,12.90
2023-01-20T10:50:26.234Z,11.00
2023-01-20T10:51:26.344Z,15.80
2023-01-20T10:52:26.546Z,15.20
2023-01-20T10:53:26.705Z,15.20
2023-01-20T10:54:26.889Z,17.80
2023-01-20T10:55:27.061Z,15.50
2023-01-20T10:56:27.203Z,17.60
2023-01-20T10:57:27.374Z,20.20
2023-01-20T10:58:27.565Z,19.80
2023-01-20T10:59:27.717Z,19.80
2023-01-20T11:00:27.875Z,18.90
2023-01-20T11:01:28.049Z,18.80
2023-01-20T11:02:28.308Z,21.80
2023-01-20T11:03:28.439Z,18.90
2023-01-20T11:04:28.538Z,19.70
2023-01-20T11:05:28.699Z,20.00
2023-01-20T11:06:28.882Z,19.50
2023-01-20T11:07:29.028Z,22.00
2023-01-20T11:08:29.232Z,22.30
2023-01-20T11:09:29.385Z,19.70
2023-01-20T11:10:29.558Z,23.80
2023-01-20T11:11:29.699Z,21.40
2023-01-20T11:12:29.890Z,24.80
2023-01-20T11:13:30.054Z,21.00
2023-01-20T11:14:30.211Z,23.40
2023-01-20T11:15:30.386Z,21.80
2023-01-20T11:16:30.547Z,21.90
2023-01-20T11:17:30.701Z,21.10
2023-01-20T11:18:30.892Z,20.50
2023-01-20T11:19:31.050Z,21.80
2023-01-20T11:20:31.219Z,17.10
2023-01-20T11:21:31.373Z,12.20
2023-01-20T11:22:31.561Z,10.70
2023-01-20T11:23:31.738Z,10.80
2023-01-20T11:24:31.938Z,10.70
2023-01-20T11:25:32.091Z,10.60
2023-01-20T11:26:32.267Z,13.80
2023-01-20T11:27:32.432Z,10.90
2023-01-20T11:28:32.612Z,10.90
2023-01-20T11:29:32.793Z,12.80
2023-01-20T11:30:33.043Z,14.60
2023-01-20T11:31:33.236Z,16.50
2023-01-20T11:32:33.346Z,16.20
2023-01-20T11:33:33.565Z,16.80
2023-01-20T11:34:33.657Z,18.80
2023-01-20T11:35:33.824Z,17.70
2023-01-20T11:36:33.983Z,19.00
2023-01-20T11:37:34.135Z,17.40
2023-01-20T11:38:34.314Z,18.10
2023-01-20T11:39:34.477Z,16.70
2023-01-20T11:40:34.707Z,20.60
2023-01-20T11:41:34.811Z,19.40
2023-01-20T11:42:36.702Z,18.90
2023-01-20T11:43:35.156Z,19.30
2023-01-20T11:44:35.316Z,19.30
2023-01-20T11:45:35.502Z,19.30
2023-01-20T11:46:35.689Z,18.80
2023-01-20T11:47:35.802Z,19.30
2023-01-20T11:48:35.990Z,20.00
2023-01-20T11:49:36.274Z,20.40
2023-01-20T11:50:36.323Z,21.50
2023-01-20T11:51:36.549Z,19.60
2023-01-20T11:52:36.650Z,20.80
2023-01-20T11:53:36.804Z,21.30
2023-01-20T11:54:37.365Z,21.10
2023-01-20T11:55:37.152Z,21.50
2023-01-20T11:56:37.343Z,21.60
2023-01-20T11:57:37.479Z,20.00
2023-01-20T11:58:37.675Z,20.80
2023-01-20T11:59:37.824Z,21.50
2023-01-20T12:00:38.046Z,21.30
2023-01-20T12:01:38.219Z,21.70
2023-01-20T12:02:38.346Z,21.50
2023-01-20T12:03:38.500Z,20.80
2023-01-20T12:04:38.715Z,20.60
2023-01-20T12:05:38.843Z,21.60
2023-01-20T12:06:39.069Z,20.00
2023-01-20T12:07:39.191Z,19.80
2023-01-20T12:08:39.355Z,20.50
2023-01-20T12:09:39.529Z,22.20
2023-01-20T12:10:39.727Z,22.70
2023-01-20T12:11:39.873Z,22.00
2023-01-20T12:12:40.067Z,21.00
2023-01-20T12:13:40.190Z,22.00
2023-01-20T12:14:40.363Z,20.00
2023-01-20T12:15:40.541Z,20.90
2023-01-20T12:16:40.816Z,22.00
2023-01-20T12:17:40.906Z,18.30
2023-01-20T12:18:50.392Z,22.60
2023-01-20T12:19:42.243Z,21.40
2023-01-20T12:20:53.900Z,21.60
2023-01-20T12:21:42.604Z,23.00
2023-01-20T12:22:41.735Z,20.10
2023-01-20T12:23:41.894Z,21.50
2023-01-20T12:24:43.193Z,20.50
2023-01-20T12:25:42.249Z,20.40
2023-01-20T12:26:42.439Z,20.20
2023-01-20T12:27:42.614Z,22.20
2023-01-20T12:28:42.769Z,21.30
2023-01-20T12:29:42.917Z,21.50
2023-01-20T12:30:43.184Z,21.50
2023-01-20T12:31:43.307Z,20.60
2023-01-20T12:32:43.437Z,21.40
2023-01-20T12:33:43.582Z,18.10
2023-01-20T12:34:43.748Z,18.30
2023-01-20T12:35:43.907Z,19.30
2023-01-20T12:36:44.092Z,18.20
2023-01-20T12:37:44.240Z,18.50
2023-01-20T12:38:44.408Z,15.20
2023-01-20T12:39:44.578Z,12.20
2023-01-20T12:40:44.750Z,11.10
2023-01-20T12:41:44.943Z,11.30
2023-01-20T12:42:45.132Z,11.70
2023-01-20T12:43:45.348Z,11.10
2023-01-20T12:44:45.471Z,11.30
2023-01-20T12:45:45.664Z,10.50
2023-01-20T12:46:45.821Z,10.80
2023-01-20T12:47:46.001Z,10.30
2023-01-20T12:48:46.195Z,12.60
2023-01-20T12:49:46.374Z,12.90
2023-01-20T12:50:46.540Z,14.40
2023-01-20T12:51:46.721Z,14.70
2023-01-20T12:52:46.901Z,14.40
2023-01-20T12:53:47.087Z,15.60
2023-01-20T12:54:49.043Z,15.30